Time;durP1;ratioP1;P1;durP2;ratioP2;P2;SDS_P1;SDS_P2;PMS_P1;PMS_P2;Temp;Humidity;BMP_temperature;BMP_pressure;BME280_temperature;BME280_humidity;BME280_pressure;Samples;Min_cycle;Max_cycle;Signal;HPM_P1;HPM_P2
2022/01/03 00:00:03;;;;;;;;;;;;;;;17.60;40.81;100063.91;5112800;28;19919;-75
2022/01/03 00:02:29;;;;;;;;;;;;;;;17.53;41.00;100061.84;5113046;28;19939;-74
2022/01/03 00:04:54;;;;;;;;;;;;;;;17.44;41.06;100056.59;5112935;28;19916;-74
2022/01/03 00:07:20;;;;;;;;;;;;;;;17.08;41.65;100049.06;5101641;28;19924;-74
2022/01/03 00:09:45;;;;;;;;;;;;;;;17.48;40.94;100054.69;5093282;28;20027;-73
2022/01/03 00:12:11;;;;;;;;;;;;;;;17.36;41.16;100059.66;5093610;28;19923;-74
2022/01/03 00:14:37;;;;;;;;;;;;;;;17.30;41.32;100056.44;5093258;28;20439;-74
2022/01/03 00:17:02;;;;;;;;;;;;;;;17.10;41.61;100041.19;5093289;28;19922;-74
2022/01/03 00:19:28;;;;;;;;;;;;;;;17.23;41.44;100048.06;5092940;28;19924;-75
2022/01/03 00:21:54;;;;;;;;;;;;;;;17.21;41.51;100047.63;5093183;28;19967;-75
2022/01/03 00:24:29;;;;;;;;;;;;;;;17.11;41.93;100046.34;5093182;28;19916;-74
2022/01/03 00:26:59;;;;;;;;;;;;;;;17.19;41.53;100059.06;5093205;28;19922;-74
2022/01/03 00:29:25;;;;;;;;;;;;;;;17.18;41.66;100059.44;5093149;28;19924;-74
2022/01/03 00:31:53;;;;;;;;;;;;;;;17.30;41.32;100052.88;5093021;28;19926;-73
2022/01/03 00:34:18;;;;;;;;;;;;;;;17.43;41.03;100057.78;5093046;28;20401;-74
2022/01/03 00:36:45;;;;;;;;;;;;;;;17.09;41.89;100053.41;5092985;28;19985;-74
2022/01/03 00:39:10;;;;;;;;;;;;;;;17.36;41.21;100056.91;5092913;28;20362;-74
2022/01/03 00:41:40;;;;;;;;;;;;;;;17.16;41.71;100059.03;5093040;28;19923;-74
2022/01/03 00:44:05;;;;;;;;;;;;;;;17.24;41.63;100054.41;5093307;28;20037;-74
2022/01/03 00:46:32;;;;;;;;;;;;;;;17.33;41.48;100047.41;5092944;28;20003;-74
2022/01/03 00:48:59;;;;;;;;;;;;;;;17.25;41.85;100044.94;5096214;28;19923;-75
2022/01/03 00:51:24;;;;;;;;;;;;;;;17.47;41.36;100050.34;5097169;28;20013;-74
2022/01/03 00:53:51;;;;;;;;;;;;;;;17.40;41.63;100043.94;5097102;28;19930;-74
2022/01/03 00:56:32;;;;;;;;;;;;;;;17.37;41.71;100055.72;5096950;28;20009;-75
2022/01/03 00:59:10;;;;;;;;;;;;;;;17.40;41.75;100043.94;5096823;28;20382;-75
2022/01/03 01:01:41;;;;;;;;;;;;;;;17.49;41.58;100044.44;5096815;28;19916;-74
2022/01/03 01:04:07;;;;;;;;;;;;;;;17.57;41.58;100042.56;5096806;28;19922;-75
2022/01/03 01:06:34;;;;;;;;;;;;;;;17.59;41.55;100043.75;5096807;28;19916;-73
2022/01/03 01:09:01;;;;;;;;;;;;;;;17.52;41.69;100043.69;5096829;28;20030;-74
2022/01/03 01:11:29;;;;;;;;;;;;;;;17.44;41.88;100047.53;5096660;28;19916;-75
2022/01/03 01:13:55;;;;;;;;;;;;;;;17.60;41.43;100031.53;5096733;28;20006;-73
2022/01/03 01:16:21;;;;;;;;;;;;;;;17.51;41.64;100030.25;5096614;28;20006;-74
2022/01/03 01:18:48;;;;;;;;;;;;;;;17.66;41.35;100032.81;5096415;28;20009;-74
2022/01/03 01:21:14;;;;;;;;;;;;;;;17.81;40.97;100021.94;5095190;28;19916;-75
2022/01/03 01:23:41;;;;;;;;;;;;;;;17.76;40.94;100023.09;5096663;28;19920;-74
2022/01/03 01:28:50;;;;;;;;;;;;;;;17.35;41.75;100034.03;5096763;28;19927;-74
2022/01/03 01:31:18;;;;;;;;;;;;;;;17.39;41.64;100034.06;5096295;28;19916;-74
2022/01/03 01:33:45;;;;;;;;;;;;;;;17.43;41.38;100035.69;5096397;28;19919;-74
2022/01/03 01:36:11;;;;;;;;;;;;;;;17.05;42.21;100031.25;5096602;28;19920;-74
2022/01/03 01:38:38;;;;;;;;;;;;;;;17.12;42.03;100028.59;5096235;28;20388;-74
2022/01/03 01:41:05;;;;;;;;;;;;;;;17.37;41.75;100039.16;5096320;28;19970;-74
2022/01/03 01:43:39;;;;;;;;;;;;;;;17.33;41.50;100030.06;5096114;28;19920;-74
2022/01/03 01:46:08;;;;;;;;;;;;;;;17.30;41.48;100026.06;5096018;28;19912;-74
2022/01/03 01:48:34;;;;;;;;;;;;;;;17.22;41.57;100029.09;5096009;28;20449;-74
2022/01/03 01:51:00;;;;;;;;;;;;;;;17.05;41.90;100033.22;5095986;28;20371;-74
2022/01/03 01:53:27;;;;;;;;;;;;;;;17.24;41.54;100022.06;5095894;28;19916;-74
2022/01/03 01:55:53;;;;;;;;;;;;;;;17.19;41.63;100022.38;5095942;28;19916;-74
2022/01/03 01:58:44;;;;;;;;;;;;;;;17.25;41.46;100017.34;5095882;28;20251;-75
2022/01/03 02:01:12;;;;;;;;;;;;;;;17.26;41.37;100014.19;5095235;28;19916;-75
2022/01/03 02:03:44;;;;;;;;;;;;;;;17.24;41.21;100021.25;5095960;28;20293;-74
2022/01/03 02:06:21;;;;;;;;;;;;;;;17.01;41.62;100011.13;5095760;28;19920;-74
2022/01/03 02:09:07;;;;;;;;;;;;;;;17.13;41.67;99996.25;5095918;28;20011;-74
2022/01/03 02:11:42;;;;;;;;;;;;;;;17.16;41.37;100014.84;5095252;28;19923;-74
2022/01/03 02:14:09;;;;;;;;;;;;;;;16.95;41.78;100009.84;5096150;28;19923;-75
2022/01/03 02:16:35;;;;;;;;;;;;;;;16.94;41.77;100008.25;5095570;28;19922;-73
2022/01/03 02:19:00;;;;;;;;;;;;;;;17.18;41.39;100016.06;5095257;28;19924;-74
2022/01/03 02:21:25;;;;;;;;;;;;;;;16.83;42.00;100010.06;5095343;28;19924;-73
2022/01/03 02:23:51;;;;;;;;;;;;;;;16.99;41.61;100009.88;5094753;28;19954;-74
2022/01/03 02:26:16;;;;;;;;;;;;;;;17.11;41.49;100013.22;5094761;28;20306;-74
2022/01/03 02:28:42;;;;;;;;;;;;;;;16.92;41.78;100000.31;5095314;28;19917;-74
2022/01/03 02:31:07;;;;;;;;;;;;;;;17.01;41.43;99993.75;5095330;28;20277;-74
2022/01/03 02:33:33;;;;;;;;;;;;;;;17.00;41.39;100000.41;5095374;28;19960;-74
2022/01/03 02:35:58;;;;;;;;;;;;;;;17.00;41.45;100003.19;5095097;28;19922;-75
2022/01/03 02:38:24;;;;;;;;;;;;;;;17.05;41.26;99997.34;5095051;28;19920;-75
2022/01/03 02:40:49;;;;;;;;;;;;;;;17.01;41.29;99989.03;5094996;28;19926;-74
2022/01/03 02:43:15;;;;;;;;;;;;;;;17.19;41.05;99983.72;5095031;28;20286;-74
2022/01/03 02:45:40;;;;;;;;;;;;;;;16.84;41.73;99990.38;5094935;28;20391;-74
2022/01/03 02:48:11;;;;;;;;;;;;;;;16.91;41.35;99981.38;5094884;28;19916;-74
2022/01/03 02:50:36;;;;;;;;;;;;;;;17.03;41.14;99989.44;5094935;28;19923;-74
2022/01/03 02:53:02;;;;;;;;;;;;;;;17.01;41.08;99985.47;5094679;28;19916;-74
2022/01/03 02:55:28;;;;;;;;;;;;;;;17.07;40.90;99990.28;5094425;28;19916;-75
2022/01/03 02:57:55;;;;;;;;;;;;;;;17.01;41.07;99991.00;5094699;28;19923;-74
2022/01/03 03:00:22;;;;;;;;;;;;;;;17.14;40.76;99984.06;5094879;28;20333;-75
2022/01/03 03:02:47;;;;;;;;;;;;;;;17.07;40.97;99981.19;5094619;28;19923;-74
2022/01/03 03:05:13;;;;;;;;;;;;;;;17.01;40.87;99978.00;5094467;28;20298;-74
2022/01/03 03:07:39;;;;;;;;;;;;;;;16.93;41.15;99981.84;5094512;28;19924;-75
2022/01/03 03:10:07;;;;;;;;;;;;;;;17.05;40.91;99976.06;5094242;28;20435;-74
2022/01/03 03:12:32;;;;;;;;;;;;;;;17.22;40.59;99973.88;5094438;28;19922;-73
2022/01/03 03:14:58;;;;;;;;;;;;;;;17.08;40.84;99964.28;5094435;28;19982;-74
2022/01/03 03:17:23;;;;;;;;;;;;;;;17.05;40.94;99976.06;5094258;28;19916;-74
2022/01/03 03:19:49;;;;;;;;;;;;;;;17.14;40.76;99970.25;5094104;28;19920;-75
2022/01/03 03:22:15;;;;;;;;;;;;;;;17.08;40.77;99980.84;5094246;28;19977;-74
2022/01/03 03:24:40;;;;;;;;;;;;;;;16.96;41.08;99961.75;5094426;28;19916;-74
2022/01/03 03:27:09;;;;;;;;;;;;;;;16.87;41.26;99964.00;5094188;28;19958;-74
2022/01/03 03:29:35;;;;;;;;;;;;;;;16.91;41.13;99968.38;5094084;28;19916;-74
2022/01/03 03:32:01;;;;;;;;;;;;;;;16.90;40.96;99966.00;5094075;28;20023;-74
2022/01/03 03:34:26;;;;;;;;;;;;;;;16.82;41.25;99950.53;5094052;28;20014;-74
2022/01/03 03:36:52;;;;;;;;;;;;;;;16.65;41.44;99955.41;5093909;28;19976;-74
2022/01/03 03:39:17;;;;;;;;;;;;;;;16.94;40.97;99947.53;5093798;28;19916;-74
2022/01/03 03:41:43;;;;;;;;;;;;;;;16.47;41.82;99924.00;5094123;28;19916;-74
2022/01/03 03:44:09;;;;;;;;;;;;;;;16.64;41.38;99933.72;5093769;28;19916;-74
2022/01/03 03:46:34;;;;;;;;;;;;;;;16.74;41.32;99926.78;5093823;28;19916;-74
2022/01/03 03:49:00;;;;;;;;;;;;;;;16.78;41.13;99941.44;5093707;28;19920;-74
2022/01/03 03:51:25;;;;;;;;;;;;;;;16.68;41.25;99939.28;5093955;28;19920;-74
2022/01/03 03:53:51;;;;;;;;;;;;;;;16.74;41.10;99935.84;5093651;28;20358;-74
2022/01/03 03:56:16;;;;;;;;;;;;;;;16.84;41.13;99937.16;5093628;28;19922;-73
2022/01/03 03:58:42;;;;;;;;;;;;;;;16.64;41.54;99936.47;5093589;28;19916;-73
2022/01/03 04:01:07;;;;;;;;;;;;;;;16.93;40.90;99940.44;5093505;28;19916;-75
2022/01/03 04:03:32;;;;;;;;;;;;;;;16.49;41.81;99932.72;5093879;28;19920;-74
2022/01/03 04:05:58;;;;;;;;;;;;;;;16.77;41.47;99948.09;5093508;28;19952;-74
2022/01/03 04:08:23;;;;;;;;;;;;;;;16.86;41.24;99938.38;5093430;28;20366;-74
2022/01/03 04:10:49;;;;;;;;;;;;;;;16.64;41.57;99923.47;5093354;28;19916;-75
2022/01/03 04:13:14;;;;;;;;;;;;;;;16.43;42.27;99923.19;5093316;28;19916;-74
2022/01/03 04:15:40;;;;;;;;;;;;;;;16.76;41.51;99936.25;5093368;28;19920;-74
2022/01/03 04:18:05;;;;;;;;;;;;;;;16.85;41.25;99922.19;5091994;28;19916;-73
2022/01/03 04:20:30;;;;;;;;;;;;;;;16.83;41.07;99927.28;5092985;28;19960;-74
2022/01/03 04:22:57;;;;;;;;;;;;;;;16.90;41.12;99930.13;5092687;28;19978;-73
2022/01/03 04:25:22;;;;;;;;;;;;;;;16.60;41.77;99939.16;5093111;28;19916;-75
2022/01/03 04:27:48;;;;;;;;;;;;;;;16.85;41.53;99939.56;5093230;28;19923;-74
2022/01/03 04:30:13;;;;;;;;;;;;;;;16.85;41.43;99942.31;5093383;28;20259;-74
2022/01/03 04:32:39;;;;;;;;;;;;;;;16.61;42.01;99921.44;5093336;28;19917;-74
2022/01/03 04:35:04;;;;;;;;;;;;;;;16.84;41.65;99921.38;5092858;28;20274;-73
2022/01/03 04:37:30;;;;;;;;;;;;;;;16.64;41.89;99917.16;5091663;28;19920;-74
2022/01/03 04:39:55;;;;;;;;;;;;;;;16.78;41.69;99919.34;5092864;28;20011;-73
2022/01/03 04:42:20;;;;;;;;;;;;;;;16.90;41.49;99916.34;5093066;28;19917;-73
2022/01/03 04:44:46;;;;;;;;;;;;;;;16.64;42.07;99923.47;5093007;28;19970;-74
2022/01/03 04:47:11;;;;;;;;;;;;;;;16.91;41.42;99920.69;5093012;28;19931;-73
2022/01/03 04:49:37;;;;;;;;;;;;;;;16.90;41.38;99913.59;5092940;28;20377;-74
2022/01/03 04:52:03;;;;;;;;;;;;;;;17.02;41.03;99915.31;5092918;28;20354;-74
2022/01/03 04:54:28;;;;;;;;;;;;;;;16.98;41.27;99917.22;5092934;28;20390;-74
2022/01/03 04:56:58;;;;;;;;;;;;;;;16.88;41.39;99907.66;5092877;28;20302;-74
2022/01/03 04:59:24;;;;;;;;;;;;;;;16.96;41.11;99909.31;5092818;28;20370;-74
2022/01/03 05:01:50;;;;;;;;;;;;;;;16.87;41.22;99903.31;5092787;28;19927;-75
2022/01/03 05:04:15;;;;;;;;;;;;;;;16.88;41.37;99902.94;5092763;28;19916;-73
2022/01/03 05:06:40;;;;;;;;;;;;;;;16.80;41.42;99903.22;5090256;28;19920;-74
2022/01/03 05:09:06;;;;;;;;;;;;;;;16.87;41.42;99895.81;5071977;28;19927;-74
2022/01/03 05:11:31;;;;;;;;;;;;;;;16.64;41.94;99901.41;5072553;28;20003;-73
2022/01/03 05:13:56;;;;;;;;;;;;;;;16.34;42.62;99895.09;5072573;28;19917;-74
2022/01/03 05:16:22;;;;;;;;;;;;;;;16.64;41.96;99901.41;5072442;28;19916;-74
2022/01/03 05:18:47;;;;;;;;;;;;;;;16.73;41.81;99892.09;5072460;28;19920;-74
2022/01/03 05:21:13;;;;;;;;;;;;;;;16.73;41.75;99892.09;5072340;28;20256;-74
2022/01/03 05:23:40;;;;;;;;;;;;;;;16.60;42.16;99895.03;5072439;28;19970;-74
2022/01/03 05:26:06;;;;;;;;;;;;;;;16.70;42.04;99876.28;5072351;28;19970;-74
2022/01/03 05:28:31;;;;;;;;;;;;;;;16.81;41.74;99879.97;5072415;28;20227;-74
2022/01/03 05:30:57;;;;;;;;;;;;;;;16.80;41.81;99884.69;5072596;28;19916;-73
2022/01/03 05:33:23;;;;;;;;;;;;;;;16.89;41.50;99873.38;5072823;28;20366;-74
2022/01/03 05:35:48;;;;;;;;;;;;;;;16.79;41.85;99882.31;5075993;28;19923;-74
2022/01/03 05:38:14;;;;;;;;;;;;;;;16.88;41.82;99877.31;5076238;28;19917;-73
2022/01/03 05:40:39;;;;;;;;;;;;;;;16.89;41.76;99882.44;5075826;28;19924;-74
2022/01/03 05:43:04;;;;;;;;;;;;;;;16.71;42.04;99883.41;5075613;28;20003;-74
2022/01/03 05:45:30;;;;;;;;;;;;;;;16.86;41.77;99885.16;5075052;28;19920;-74
2022/01/03 05:47:55;;;;;;;;;;;;;;;16.58;42.57;99891.88;5075061;28;19959;-74
2022/01/03 05:50:21;;;;;;;;;;;;;;;16.96;41.91;99895.53;5075125;28;20407;-74
2022/01/03 05:52:46;;;;;;;;;;;;;;;16.74;42.40;99888.16;5075614;28;19924;-74
2022/01/03 05:55:12;;;;;;;;;;;;;;;16.70;42.58;99898.34;5075725;28;19978;-74
2022/01/03 05:57:39;;;;;;;;;;;;;;;16.53;42.79;99900.47;5075873;28;19923;-73
2022/01/03 06:00:06;;;;;;;;;;;;;;;16.47;43.25;99896.44;5075772;28;20377;-73
2022/01/03 06:02:36;;;;;;;;;;;;;;;16.73;42.69;99903.13;5075606;28;19922;-74
2022/01/03 06:05:04;;;;;;;;;;;;;;;16.99;42.14;99905.81;5075497;28;19916;-74
2022/01/03 06:07:30;;;;;;;;;;;;;;;16.92;42.36;99902.97;5075518;28;19942;-74
2022/01/03 06:09:55;;;;;;;;;;;;;;;16.59;43.25;99903.69;5075383;28;19917;-74
2022/01/03 06:12:21;;;;;;;;;;;;;;;16.76;42.80;99905.13;5075630;28;19923;-73
2022/01/03 06:14:47;;;;;;;;;;;;;;;16.44;43.72;99905.47;5075285;28;20378;-73
2022/01/03 06:17:13;;;;;;;;;;;;;;;16.57;43.49;99915.09;5075278;28;19916;-74
2022/01/03 06:19:38;;;;;;;;;;;;;;;16.81;42.83;99911.13;5075002;28;19974;-74
2022/01/03 06:22:04;;;;;;;;;;;;;;;16.54;43.63;99907.56;5075250;28;19916;-73
2022/01/03 06:24:29;;;;;;;;;;;;;;;16.67;43.59;99912.88;5075422;28;19955;-74
2022/01/03 06:26:55;;;;;;;;;;;;;;;16.43;44.42;99912.16;5075145;28;19931;-74
2022/01/03 06:29:20;;;;;;;;;;;;;;;16.33;44.82;99904.53;5075068;28;20483;-74
2022/01/03 06:31:47;;;;;;;;;;;;;;;16.55;44.36;99911.94;5075296;28;19924;-73
2022/01/03 06:34:12;;;;;;;;;;;;;;;16.42;44.58;99907.00;5075010;28;20535;-74
2022/01/03 06:36:38;;;;;;;;;;;;;;;16.56;43.90;99904.47;5075320;28;19917;-74
2022/01/03 06:39:05;;;;;;;;;;;;;;;16.46;44.04;99891.28;5074956;28;20418;-73
2022/01/03 06:41:30;;;;;;;;;;;;;;;16.74;43.36;99893.69;5074759;28;20333;-73
2022/01/03 06:43:55;;;;;;;;;;;;;;;16.55;43.42;99887.13;5074743;28;19917;-74
2022/01/03 06:46:21;;;;;;;;;;;;;;;16.31;44.04;99874.56;5074195;28;19969;-74
2022/01/03 06:48:47;;;;;;;;;;;;;;;16.37;43.89;99881.34;5074942;28;19916;-74
2022/01/03 06:51:13;;;;;;;;;;;;;;;16.33;43.96;99874.19;5074693;28;19923;-75
2022/01/03 06:53:39;;;;;;;;;;;;;;;16.60;43.24;99880.47;5074547;28;19916;-73
2022/01/03 06:56:04;;;;;;;;;;;;;;;16.48;43.76;99884.25;5074777;28;19962;-74
2022/01/03 06:58:31;;;;;;;;;;;;;;;16.53;43.76;99888.63;5074484;28;20367;-74
2022/01/03 07:00:56;;;;;;;;;;;;;;;16.52;43.82;99887.84;5074295;28;19916;-75
2022/01/03 07:03:22;;;;;;;;;;;;;;;16.46;44.17;99872.78;5074456;28;19916;-73
2022/01/03 07:05:47;;;;;;;;;;;;;;;16.64;43.57;99881.31;5074400;28;19917;-73
2022/01/03 07:08:13;;;;;;;;;;;;;;;16.73;43.19;99892.88;5074266;28;20382;-74
2022/01/03 07:10:38;;;;;;;;;;;;;;;16.35;44.10;99891.16;5074269;28;19916;-74
2022/01/03 07:13:04;;;;;;;;;;;;;;;16.39;44.00;99892.00;5074134;28;20009;-73
2022/01/03 07:20:57;;;;;;;;;;;;;;;16.46;43.97;99888.53;5074128;28;19927;-74
2022/01/03 07:23:23;;;;;;;;;;;;;;;16.45;44.07;99893.25;5074254;28;20286;-73
2022/01/03 07:25:49;;;;;;;;;;;;;;;16.59;43.62;99895.41;5073897;28;20278;-74
2022/01/03 07:28:15;;;;;;;;;;;;;;;16.60;43.70;99894.25;5073890;28;19923;-74
2022/01/03 07:30:40;;;;;;;;;;;;;;;16.56;43.80;99883.19;5073847;28;19920;-74
2022/01/03 07:33:06;;;;;;;;;;;;;;;16.46;43.93;99902.31;5074127;28;19928;-74
2022/01/03 07:35:32;;;;;;;;;;;;;;;16.49;43.94;99894.13;5073752;28;20306;-74
2022/01/03 07:37:58;;;;;;;;;;;;;;;16.55;43.62;99903.66;5073964;28;19912;-74
2022/01/03 07:40:24;;;;;;;;;;;;;;;16.70;43.25;99903.84;5073564;28;20008;-74
2022/01/03 07:42:49;;;;;;;;;;;;;;;16.62;43.62;99903.75;5073918;28;20015;-74
2022/01/03 07:45:15;;;;;;;;;;;;;;;16.55;44.06;99911.94;5073549;28;19919;-74
2022/01/03 07:47:40;;;;;;;;;;;;;;;16.69;43.99;99911.34;5073540;28;19924;-74
2022/01/03 07:50:07;;;;;;;;;;;;;;;16.70;43.71;99914.88;5073465;28;19923;-74
2022/01/03 07:52:33;;;;;;;;;;;;;;;16.79;43.34;99921.72;5073457;28;19920;-74
2022/01/03 07:54:58;;;;;;;;;;;;;;;16.85;43.31;99913.91;5073360;28;19916;-74
2022/01/03 07:57:23;;;;;;;;;;;;;;;17.00;43.04;99928.66;5072499;28;19920;-73
2022/01/03 07:59:49;;;;;;;;;;;;;;;16.90;43.17;99919.09;5073446;28;19917;-73
2022/01/03 08:02:14;;;;;;;;;;;;;;;16.87;43.30;99920.66;5073289;28;20298;-74
2022/01/03 08:04:40;;;;;;;;;;;;;;;16.72;43.53;99927.16;5073243;28;19923;-74
2022/01/03 08:07:05;;;;;;;;;;;;;;;16.90;43.29;99925.41;5073110;28;20006;-75
2022/01/03 08:09:31;;;;;;;;;;;;;;;16.84;43.14;99926.91;5073450;28;19920;-74
2022/01/03 08:11:56;;;;;;;;;;;;;;;16.85;42.78;99924.94;5073160;28;20017;-74
2022/01/03 08:14:22;;;;;;;;;;;;;;;16.81;43.00;99926.88;5073119;28;19924;-74
2022/01/03 08:16:47;;;;;;;;;;;;;;;16.60;43.23;99925.38;5073140;28;19917;-74
2022/01/03 08:19:12;;;;;;;;;;;;;;;16.50;43.17;99928.78;5072664;28;19920;-74
2022/01/03 08:21:38;;;;;;;;;;;;;;;16.28;43.95;99927.69;5071909;28;19927;-75
2022/01/03 08:24:04;;;;;;;;;;;;;;;16.46;43.34;99938.16;5072897;28;20410;-74
2022/01/03 08:26:29;;;;;;;;;;;;;;;16.46;43.33;99944.47;5073211;28;19919;-74
2022/01/03 08:28:55;;;;;;;;;;;;;;;16.57;43.19;99950.97;5072921;28;19916;-75
2022/01/03 08:31:22;;;;;;;;;;;;;;;16.65;42.90;99941.63;5072850;28;19912;-74
2022/01/03 08:33:47;;;;;;;;;;;;;;;16.64;43.04;99942.78;5072858;28;19917;-74
2022/01/03 08:36:13;;;;;;;;;;;;;;;16.59;43.17;99948.63;5072627;28;19917;-74
2022/01/03 08:38:38;;;;;;;;;;;;;;;16.55;43.38;99942.28;5071182;28;19912;-74
2022/01/03 08:41:04;;;;;;;;;;;;;;;16.53;43.49;99957.56;5071851;28;19916;-73
2022/01/03 08:43:29;;;;;;;;;;;;;;;16.55;43.28;99958.00;5072809;28;19921;-75
2022/01/03 08:45:55;;;;;;;;;;;;;;;16.25;44.28;99950.50;5072764;28;20290;-74
2022/01/03 08:48:26;;;;;;;;;;;;;;;16.36;43.87;99956.94;5072706;28;19916;-74
2022/01/03 09:04:13;;;;;;;;;;;;;;;16.36;44.05;99951.44;5083643;28;20341;-75
2022/01/03 09:06:48;;;;;;;;;;;;;;;16.18;44.41;99944.06;5089812;28;19917;-75
2022/01/03 10:08:05;;;;;;;;;;;;;;;16.43;45.30;99939.72;5014070;28;19995;-71
2022/01/03 10:10:34;;;;;;;;;;;;;;;16.40;45.13;99934.13;5015851;28;19917;-70
2022/01/03 10:13:03;;;;;;;;;;;;;;;16.30;45.46;99927.31;5015818;28;19921;-70
2022/01/03 10:15:32;;;;;;;;;;;;;;;16.34;45.37;99922.66;5015742;28;19956;-72
2022/01/03 11:42:17;;;;;;;;;;;;;;;17.46;43.06;99891.34;5986977;23;20173;-76
2022/01/03 12:03:41;;;;;;;;;;;;;;;18.25;41.48;99856.84;5033995;28;20294;-75
2022/01/03 12:06:08;;;;;;;;;;;;;;;18.11;41.73;99876.09;5033629;28;19921;-75
2022/01/03 12:08:37;;;;;;;;;;;;;;;18.22;41.46;99873.44;5016222;28;19923;-86
2022/01/03 12:11:23;;;;;;;;;;;;;;;17.99;42.14;99868.16;5034043;28;19917;-76
2022/01/03 12:13:49;;;;;;;;;;;;;;;18.24;41.33;99871.06;5033094;28;19921;-75
2022/01/03 12:16:14;;;;;;;;;;;;;;;18.02;41.57;99868.16;5016500;28;19917;-86
2022/01/03 12:18:55;;;;;;;;;;;;;;;18.38;41.12;99873.13;5016891;28;20015;-83
2022/01/03 12:21:39;;;;;;;;;;;;;;;18.18;41.31;99865.09;5017263;28;19921;-90
2022/01/03 12:24:24;;;;;;;;;;;;;;;18.26;41.07;99885.28;5034551;28;19971;-77
2022/01/03 12:27:09;;;;;;;;;;;;;;;18.32;41.05;99877.44;5015454;28;20000;-81
2022/01/03 12:29:57;;;;;;;;;;;;;;;18.84;39.99;99878.91;5033262;28;20003;-76
2022/01/03 12:32:33;;;;;;;;;;;;;;;18.69;40.40;99880.03;5033474;28;20283;-90
2022/01/03 12:35:08;;;;;;;;;;;;;;;18.64;40.53;99883.91;5033116;28;19980;-77
2022/01/03 12:37:43;;;;;;;;;;;;;;;18.67;40.58;99883.19;5032983;28;19917;-76
2022/01/03 12:40:10;;;;;;;;;;;;;;;18.49;40.91;99891.34;5033345;28;19979;-89
2022/01/03 12:42:54;;;;;;;;;;;;;;;18.67;40.28;99888.72;5033068;28;19917;-76
2022/01/03 12:45:39;;;;;;;;;;;;;;;18.76;40.26;99886.38;5033647;28;19921;-89
2022/01/03 12:48:10;;;;;;;;;;;;;;;18.78;40.34;99895.09;5034041;28;19917;-76
2022/01/03 12:50:44;;;;;;;;;;;;;;;19.13;39.66;99894.44;5034090;28;19921;-91
2022/01/03 12:53:11;;;;;;;;;;;;;;;19.14;39.55;99892.47;5033548;28;19960;-91
2022/01/03 12:55:41;;;;;;;;;;;;;;;19.38;39.21;99890.94;5031644;28;19925;-76
2022/01/03 12:58:27;;;;;;;;;;;;;;;19.25;39.35;99892.47;5033699;28;19917;-88
2022/01/03 13:00:56;;;;;;;;;;;;;;;18.94;39.83;99878.16;5033455;28;19948;-88
2022/01/03 13:03:28;;;;;;;;;;;;;;;19.10;39.72;99878.59;5034222;28;20011;-89
2022/01/03 13:06:06;;;;;;;;;;;;;;;19.18;39.58;99879.41;5033843;28;19917;-89
2022/01/03 13:08:35;;;;;;;;;;;;;;;19.14;39.57;99878.63;5033943;28;19918;-86
2022/01/03 13:11:01;;;;;;;;;;;;;;;18.71;40.52;99872.13;5033724;28;19932;-85
2022/01/03 13:13:28;;;;;;;;;;;;;;;18.77;40.36;99874.13;5016314;28;19985;-76
2022/01/03 13:15:53;;;;;;;;;;;;;;;18.92;40.13;99865.88;5033736;28;20378;-89
2022/01/03 13:18:19;;;;;;;;;;;;;;;18.89;40.31;99863.88;5033729;28;19923;-89
2022/01/03 13:20:57;;;;;;;;;;;;;;;19.12;40.03;99867.16;5033909;28;19924;-88
2022/01/03 13:23:26;;;;;;;;;;;;;;;19.27;39.58;99862.41;5033474;28;19956;-88
2022/01/03 13:26:01;;;;;;;;;;;;;;;19.42;39.56;99852.94;5033550;28;19916;-78
2022/01/03 13:28:26;;;;;;;;;;;;;;;19.15;39.89;99849.72;5033734;28;19917;-90
2022/01/03 13:31:01;;;;;;;;;;;;;;;19.14;39.97;99850.94;5033541;28;19920;-84
2022/01/03 13:33:27;;;;;;;;;;;;;;;19.05;40.13;99853.28;5033595;28;20004;-89
2022/01/03 13:36:05;;;;;;;;;;;;;;;19.18;39.75;99846.16;5033848;28;19952;-76
2022/01/03 13:38:31;;;;;;;;;;;;;;;19.12;40.07;99840.25;5034036;28;19928;-88
2022/01/03 13:41:13;;;;;;;;;;;;;;;19.35;39.45;99842.66;5033467;28;19924;-77
2022/01/03 13:43:47;;;;;;;;;;;;;;;19.25;39.82;99842.63;5033176;28;19947;-76
2022/01/03 13:49:14;;;;;;;;;;;;;;;19.43;39.35;99853.75;5033908;28;19940;-85
2022/01/03 13:51:46;;;;;;;;;;;;;;;19.52;39.22;99852.16;5033085;28;19964;-83
2022/01/03 13:54:22;;;;;;;;;;;;;;;19.68;39.06;99837.94;5033241;28;19917;-86
2022/01/03 13:56:48;;;;;;;;;;;;;;;19.41;39.53;99843.03;5035926;28;20363;-88
2022/01/03 13:59:14;;;;;;;;;;;;;;;19.62;39.22;99829.22;5036402;28;19917;-86
2022/01/03 14:01:40;;;;;;;;;;;;;;;19.63;39.10;99836.34;5036746;28;19921;-77
2022/01/03 14:04:05;;;;;;;;;;;;;;;19.76;38.73;99822.91;5036720;28;19917;-76
2022/01/03 14:06:31;;;;;;;;;;;;;;;19.98;38.60;99834.75;5036263;28;19913;-76
2022/01/03 14:08:57;;;;;;;;;;;;;;;19.68;38.95;99835.19;5036386;28;20063;-76
2022/01/03 14:11:25;;;;;;;;;;;;;;;19.64;39.18;99829.63;5036364;28;20000;-88
2022/01/03 14:13:51;;;;;;;;;;;;;;;20.03;38.67;99830.81;5036416;28;19917;-81
2022/01/03 14:16:16;;;;;;;;;;;;;;;19.98;38.95;99834.75;5036669;28;19917;-87
2022/01/03 14:18:43;;;;;;;;;;;;;;;20.04;38.86;99833.16;5036382;28;19925;-88
2022/01/03 14:21:11;;;;;;;;;;;;;;;19.92;38.83;99823.28;5036371;28;19917;-76
2022/01/03 14:23:40;;;;;;;;;;;;;;;19.85;38.81;99820.50;5036236;28;20289;-88
2022/01/03 14:26:19;;;;;;;;;;;;;;;19.94;38.79;99818.09;5035949;28;19924;-88
2022/01/03 14:28:44;;;;;;;;;;;;;;;19.82;38.73;99813.00;5036476;28;19917;-90
2022/01/03 14:31:11;;;;;;;;;;;;;;;19.55;38.77;99817.31;5035851;28;19924;-81
2022/01/03 14:33:40;;;;;;;;;;;;;;;19.60;38.83;99814.19;5036239;28;19985;-76
2022/01/03 14:36:18;;;;;;;;;;;;;;;19.63;38.52;99810.63;5035730;28;20386;-76
2022/01/03 14:38:45;;;;;;;;;;;;;;;19.60;38.81;99803.13;5035586;28;20535;-76
2022/01/03 14:41:20;;;;;;;;;;;;;;;19.83;38.49;99808.25;5017676;28;19917;-76
2022/01/03 14:43:54;;;;;;;;;;;;;;;19.92;38.15;99798.31;5035587;28;20579;-78
2022/01/03 14:46:27;;;;;;;;;;;;;;;19.75;38.60;99804.69;5036214;28;19975;-90
2022/01/03 14:48:53;;;;;;;;;;;;;;;19.70;38.56;99798.75;5035977;28;19913;-90
2022/01/03 14:51:18;;;;;;;;;;;;;;;19.68;38.49;99805.47;5035285;28;20454;-76
2022/01/03 14:53:44;;;;;;;;;;;;;;;20.05;37.97;99789.59;5035328;28;19913;-75
2022/01/03 14:56:26;;;;;;;;;;;;;;;20.05;37.99;99800.69;5035307;28;19921;-86
2022/01/03 14:59:07;;;;;;;;;;;;;;;19.98;38.03;99789.59;5035522;28;19921;-76
2022/01/03 15:01:32;;;;;;;;;;;;;;;19.85;37.91;99792.78;5035328;28;20308;-76
2022/01/03 15:03:58;;;;;;;;;;;;;;;19.52;38.23;99801.50;5035160;28;19962;-87
2022/01/03 15:06:23;;;;;;;;;;;;;;;19.50;38.17;99793.59;5034992;28;20387;-76
2022/01/03 15:08:49;;;;;;;;;;;;;;;19.58;38.15;99799.97;5035079;28;19921;-77
2022/01/03 15:11:14;;;;;;;;;;;;;;;19.54;38.13;99802.69;5034841;28;20048;-84
2022/01/03 15:13:40;;;;;;;;;;;;;;;19.27;38.37;99802.28;5035155;28;19921;-76
2022/01/03 15:16:06;;;;;;;;;;;;;;;19.48;38.16;99803.47;5034928;28;19917;-76
2022/01/03 15:18:33;;;;;;;;;;;;;;;19.52;38.10;99801.50;5035598;28;19926;-89
2022/01/03 15:20:58;;;;;;;;;;;;;;;19.43;38.16;99803.88;5017726;28;19917;-89
2022/01/03 15:23:24;;;;;;;;;;;;;;;19.66;38.03;99807.06;5035766;28;20011;-76
2022/01/03 15:25:49;;;;;;;;;;;;;;;19.49;38.22;99803.06;5035096;28;20358;-86
2022/01/03 15:28:15;;;;;;;;;;;;;;;19.72;37.84;99802.69;5037303;28;20473;-78
2022/01/03 15:30:40;;;;;;;;;;;;;;;19.84;37.59;99807.06;5035768;28;19920;-79
2022/01/03 15:33:06;;;;;;;;;;;;;;;19.97;37.38;99799.13;5035471;28;20337;-87
2022/01/03 15:35:31;;;;;;;;;;;;;;;20.03;37.20;99803.06;5034545;28;19917;-77
2022/01/03 15:37:56;;;;;;;;;;;;;;;20.03;37.12;99803.84;5035214;28;20379;-90
2022/01/03 15:40:22;;;;;;;;;;;;;;;19.91;37.40;99791.19;5035300;28;20362;-90
2022/01/03 15:42:47;;;;;;;;;;;;;;;19.88;37.39;99792.00;5034738;28;19928;-87
2022/01/03 15:45:13;;;;;;;;;;;;;;;19.80;37.56;99786.84;5034882;28;19924;-77
2022/01/03 15:47:38;;;;;;;;;;;;;;;19.61;37.94;99788.84;5016763;28;19917;-86
2022/01/03 15:50:05;;;;;;;;;;;;;;;19.58;37.89;99791.66;5034428;28;19968;-86
2022/01/03 15:52:30;;;;;;;;;;;;;;;19.50;37.83;99792.81;5034597;28;19943;-76